createdAt,value
2018-06-08T00:01:51.848Z,38.63
2018-06-08T00:04:20.306Z,37.45
2018-06-08T00:06:48.705Z,38.70
2018-06-08T00:09:17.115Z,38.25
2018-06-08T00:11:45.531Z,36.68
2018-06-08T00:14:13.946Z,36.90
2018-06-08T00:16:42.363Z,35.60
2018-06-08T00:19:10.778Z,35.90
2018-06-08T00:21:39.182Z,35.17
2018-06-08T00:24:07.634Z,34.85
2018-06-08T00:26:36.042Z,35.00
2018-06-08T00:29:04.475Z,33.37
2018-06-08T00:31:32.902Z,34.80
2018-06-08T00:34:01.538Z,34.98
2018-06-08T00:36:29.934Z,35.17
2018-06-08T00:38:58.338Z,36.10
2018-06-08T00:41:26.773Z,37.33
2018-06-08T00:43:55.243Z,36.30
2018-06-08T00:46:23.703Z,36.35
2018-06-08T00:48:52.118Z,37.40
2018-06-08T00:51:20.550Z,37.40
2018-06-08T00:53:48.971Z,37.40
2018-06-08T00:56:28.842Z,36.13
2018-06-08T00:58:57.242Z,36.03
2018-06-08T01:01:25.641Z,37.13
2018-06-08T01:03:54.069Z,36.25
2018-06-08T01:06:22.464Z,36.60
2018-06-08T01:08:50.871Z,37.73
2018-06-08T01:11:19.297Z,36.80
2018-06-08T01:13:47.703Z,36.23
2018-06-08T01:16:16.091Z,38.80
2018-06-08T01:18:44.522Z,37.50
2018-06-08T01:21:12.625Z,38.73
2018-06-08T01:23:41.133Z,37.47
2018-06-08T01:26:09.553Z,38.23
2018-06-08T01:28:38.002Z,39.60
2018-06-08T01:31:06.590Z,39.98
2018-06-08T01:33:35.015Z,39.48
2018-06-08T01:36:03.417Z,38.53
2018-06-08T01:38:31.826Z,35.88
2018-06-08T01:41:00.211Z,36.98
2018-06-08T01:43:28.618Z,34.48
2018-06-08T01:45:57.038Z,33.80
2018-06-08T01:48:25.449Z,34.03
2018-06-08T01:50:53.836Z,35.23
2018-06-08T01:53:21.978Z,35.80
2018-06-08T01:55:50.369Z,34.60
2018-06-08T01:58:18.748Z,33.60
2018-06-08T02:00:47.171Z,34.13
2018-06-08T02:03:15.568Z,34.57
2018-06-08T02:05:43.974Z,35.20
2018-06-08T02:08:12.364Z,34.07
2018-06-08T02:10:40.782Z,35.78
2018-06-08T02:13:09.188Z,35.13
2018-06-08T02:15:37.622Z,34.60
2018-06-08T02:18:06.029Z,34.27
2018-06-08T02:20:34.441Z,34.70
2018-06-08T02:23:02.850Z,34.53
2018-06-08T02:25:31.363Z,33.80
2018-06-08T02:27:59.444Z,32.38
2018-06-08T02:30:27.849Z,33.73
2018-06-08T02:32:56.282Z,33.58
2018-06-08T02:35:24.395Z,33.63
2018-06-08T02:37:52.838Z,33.63
2018-06-08T02:40:20.967Z,32.00
2018-06-08T02:42:49.424Z,33.05
2018-06-08T02:45:17.838Z,33.45
2018-06-08T02:47:46.249Z,31.95
2018-06-08T02:50:14.656Z,32.98
2018-06-08T02:52:43.051Z,31.40
2018-06-08T02:55:11.474Z,32.42
2018-06-08T02:57:39.880Z,33.48
2018-06-08T03:00:08.283Z,32.00
2018-06-08T03:02:36.702Z,32.48
2018-06-08T03:05:05.615Z,33.13
2018-06-08T03:07:33.729Z,33.83
2018-06-08T03:10:02.143Z,33.00
2018-06-08T03:12:30.522Z,32.38
2018-06-08T03:14:58.923Z,32.60
2018-06-08T03:17:27.043Z,32.15
2018-06-08T03:19:55.443Z,33.03
2018-06-08T03:22:23.842Z,32.90
2018-06-08T03:24:52.267Z,34.13
2018-06-08T03:27:20.690Z,33.63
2018-06-08T03:29:49.129Z,33.50
2018-06-08T03:32:17.551Z,33.53
2018-06-08T03:34:45.945Z,33.92
2018-06-08T03:37:14.366Z,36.30
2018-06-08T03:39:42.759Z,36.53
2018-06-08T03:42:11.202Z,36.08
2018-06-08T03:44:39.658Z,38.00
2018-06-08T03:47:08.049Z,38.05
2018-06-08T03:49:36.161Z,37.25
2018-06-08T03:52:04.603Z,39.13
2018-06-08T03:54:33.031Z,38.73
2018-06-08T03:57:01.422Z,38.67
2018-06-08T03:59:29.855Z,39.25
2018-06-08T04:01:58.249Z,39.48
2018-06-08T04:04:26.638Z,39.67
2018-06-08T04:06:55.054Z,39.80
2018-06-08T04:09:23.455Z,39.73
2018-06-08T04:11:51.870Z,40.57
2018-06-08T04:14:20.253Z,40.57
2018-06-08T04:16:48.685Z,40.00
2018-06-08T04:19:16.773Z,42.20
2018-06-08T04:21:45.186Z,41.25
2018-06-08T04:24:13.597Z,40.58
2018-06-08T04:26:42.026Z,43.55
2018-06-08T04:29:10.419Z,42.93
2018-06-08T04:31:38.810Z,42.67
2018-06-08T04:34:07.239Z,42.60
2018-06-08T04:36:35.358Z,44.03
2018-06-08T04:39:05.774Z,44.50
2018-06-08T04:41:34.235Z,43.75
2018-06-08T04:44:02.630Z,45.67
2018-06-08T04:46:31.045Z,44.07
2018-06-08T04:48:59.443Z,45.03
2018-06-08T04:51:27.862Z,47.00
2018-06-08T04:53:56.265Z,43.98
2018-06-08T04:56:25.487Z,44.23
2018-06-08T04:58:53.970Z,45.00
2018-06-08T05:01:22.385Z,43.83
2018-06-08T05:03:50.800Z,45.20
2018-06-08T05:06:19.187Z,48.68
2018-06-08T05:08:47.595Z,45.70
2018-06-08T05:11:15.980Z,47.80
2018-06-08T05:13:44.542Z,49.25
2018-06-08T05:16:12.938Z,49.30
2018-06-08T05:18:41.362Z,51.13
2018-06-08T05:21:09.814Z,53.10
2018-06-08T05:23:37.967Z,53.42
2018-06-08T05:26:06.418Z,53.98
2018-06-08T05:28:34.843Z,55.63
2018-06-08T05:31:03.253Z,55.98
2018-06-08T05:33:31.674Z,57.15
2018-06-08T05:36:00.069Z,56.80
2018-06-08T05:38:28.490Z,55.30
2018-06-08T05:40:56.935Z,58.58
2018-06-08T05:43:25.038Z,57.25
2018-06-08T05:45:53.460Z,55.67
2018-06-08T05:48:22.008Z,56.53
2018-06-08T05:50:50.394Z,56.05
2018-06-08T05:53:18.818Z,56.05
2018-06-08T05:55:47.245Z,56.55
2018-06-08T05:58:15.690Z,54.67
2018-06-08T06:00:44.125Z,53.75
2018-06-08T06:03:12.558Z,54.42
2018-06-08T06:05:40.998Z,54.40
2018-06-08T06:10:49.738Z,54.13
2018-06-08T06:13:18.122Z,55.23
2018-06-08T06:15:46.538Z,58.13
2018-06-08T06:18:14.945Z,58.05
2018-06-08T06:20:43.431Z,58.70
2018-06-08T06:23:11.839Z,59.70
2018-06-08T06:25:40.238Z,61.73
2018-06-08T06:28:08.662Z,59.53
2018-06-08T06:30:37.085Z,57.25
2018-06-08T06:33:05.615Z,57.67
2018-06-08T06:35:34.025Z,57.60
2018-06-08T06:38:02.424Z,58.00
2018-06-08T06:40:30.807Z,56.13
2018-06-08T06:42:59.206Z,57.90
2018-06-08T06:45:27.316Z,54.90
2018-06-08T06:47:55.740Z,54.95
2018-06-08T06:50:24.124Z,56.40
2018-06-08T06:52:52.511Z,57.73
2018-06-08T06:55:20.601Z,60.40
2018-06-08T06:57:48.999Z,59.65
2018-06-08T07:00:17.391Z,63.87
2018-06-08T07:02:45.788Z,63.75
2018-06-08T07:05:14.252Z,63.68
2018-06-08T07:07:42.620Z,65.52
2018-06-08T07:10:11.019Z,61.00
2018-06-08T07:12:39.832Z,56.70
2018-06-08T07:15:08.207Z,52.20
2018-06-08T07:17:36.587Z,52.87
2018-06-08T07:20:04.989Z,49.97
2018-06-08T07:22:33.396Z,50.33
2018-06-08T07:25:01.786Z,49.50
2018-06-08T07:27:30.196Z,49.63
2018-06-08T07:29:58.572Z,45.45
2018-06-08T07:32:26.973Z,44.60
2018-06-08T07:34:55.373Z,46.88
2018-06-08T07:37:23.811Z,45.15
2018-06-08T07:39:52.618Z,41.00
2018-06-08T07:42:20.966Z,42.40
2018-06-08T07:44:49.373Z,39.80
2018-06-08T07:47:17.467Z,42.35
2018-06-08T07:49:45.865Z,46.45
2018-06-08T07:52:14.250Z,40.83
2018-06-08T07:54:42.646Z,42.93
2018-06-08T07:57:11.049Z,40.43
2018-06-08T07:59:39.430Z,38.80
2018-06-08T08:02:07.854Z,38.53
2018-06-08T08:04:36.242Z,38.88
2018-06-08T08:07:04.687Z,39.18
2018-06-08T08:09:33.118Z,40.03
2018-06-08T08:12:01.512Z,42.13
2018-06-08T08:14:29.911Z,40.88
2018-06-08T08:16:58.319Z,39.83
2018-06-08T08:19:26.722Z,39.78
2018-06-08T08:21:55.125Z,39.23
2018-06-08T08:24:23.590Z,39.25
2018-06-08T08:26:51.990Z,40.33
2018-06-08T08:29:20.395Z,41.42
2018-06-08T08:31:48.803Z,43.20
2018-06-08T08:34:17.271Z,40.35
2018-06-08T08:36:45.644Z,39.10
2018-06-08T08:39:13.746Z,37.93
2018-06-08T08:41:42.133Z,37.17
2018-06-08T08:44:10.543Z,37.08
2018-06-08T08:46:38.958Z,35.23
2018-06-08T08:49:07.356Z,35.43
2018-06-08T08:51:35.773Z,31.37
2018-06-08T08:54:04.227Z,31.42
2018-06-08T08:56:32.617Z,28.87
2018-06-08T08:59:01.052Z,30.35
2018-06-08T09:01:29.451Z,30.55
2018-06-08T09:03:57.853Z,29.18
2018-06-08T09:06:26.255Z,29.35
2018-06-08T09:08:54.655Z,31.70
2018-06-08T09:11:23.048Z,30.30
2018-06-08T09:13:51.450Z,30.37
2018-06-08T09:16:19.862Z,30.60
2018-06-08T09:18:48.262Z,29.90
2018-06-08T09:21:16.678Z,29.80
2018-06-08T09:23:45.080Z,29.63
2018-06-08T09:26:13.519Z,29.15
2018-06-08T09:28:41.614Z,28.27
2018-06-08T09:31:10.028Z,27.23
2018-06-08T09:33:38.416Z,28.25
2018-06-08T09:36:06.834Z,27.58
2018-06-08T09:38:35.226Z,26.97
2018-06-08T09:41:03.637Z,27.13
2018-06-08T09:43:32.032Z,26.00
2018-06-08T09:46:00.406Z,25.45
2018-06-08T09:48:29.161Z,25.57
2018-06-08T09:50:57.560Z,26.40
2018-06-08T09:53:25.965Z,25.90
2018-06-08T09:55:57.587Z,28.35
2018-06-08T09:58:25.958Z,30.30
2018-06-08T10:00:54.352Z,30.97
2018-06-08T10:03:22.766Z,31.10
2018-06-08T10:05:51.181Z,31.25
2018-06-08T10:08:19.559Z,33.58
2018-06-08T10:10:47.947Z,35.55
2018-06-08T10:13:16.336Z,35.65
2018-06-08T10:15:44.728Z,35.23
2018-06-08T10:18:13.125Z,36.45
2018-06-08T10:20:41.508Z,36.70
2018-06-08T10:23:09.903Z,37.35
2018-06-08T10:25:37.998Z,38.25
2018-06-08T10:28:06.426Z,37.13
2018-06-08T10:30:34.826Z,37.42
2018-06-08T10:33:03.244Z,35.75
2018-06-08T10:35:31.678Z,37.58
2018-06-08T10:38:00.074Z,35.90
2018-06-08T10:40:28.471Z,36.48
2018-06-08T10:42:56.851Z,35.43
2018-06-08T10:45:25.283Z,36.35
2018-06-08T10:47:53.652Z,36.83
2018-06-08T10:50:22.039Z,37.45
2018-06-08T10:52:50.446Z,37.03
2018-06-08T10:55:18.854Z,37.30
2018-06-08T10:57:47.238Z,40.52
2018-06-08T11:00:15.623Z,39.35
2018-06-08T11:02:44.006Z,38.75
2018-06-08T11:05:12.389Z,38.85
2018-06-08T11:07:40.770Z,39.73
2018-06-08T11:10:09.219Z,42.70
2018-06-08T11:12:37.622Z,42.53
2018-06-08T11:15:06.027Z,38.03
2018-06-08T11:17:34.437Z,39.13
2018-06-08T11:20:02.568Z,43.10
2018-06-08T11:22:30.962Z,42.17
2018-06-08T11:24:59.379Z,38.85
2018-06-08T11:27:27.771Z,41.70
2018-06-08T11:29:56.149Z,37.23
2018-06-08T11:32:24.555Z,39.40
2018-06-08T11:34:52.930Z,35.67
2018-06-08T11:37:21.307Z,37.03
2018-06-08T11:39:49.703Z,35.10
2018-06-08T11:42:18.093Z,37.67
2018-06-08T11:44:46.477Z,36.67
2018-06-08T11:47:14.875Z,36.00
2018-06-08T11:49:42.988Z,34.00
2018-06-08T11:52:11.358Z,33.18
2018-06-08T11:54:39.734Z,32.53
2018-06-08T11:57:08.248Z,35.40
2018-06-08T11:59:36.666Z,32.33
2018-06-08T12:02:05.159Z,33.10
2018-06-08T12:04:33.554Z,34.57
2018-06-08T12:07:01.956Z,34.13
2018-06-08T12:09:30.343Z,33.73
2018-06-08T12:11:58.806Z,34.70
2018-06-08T12:14:27.189Z,35.23
2018-06-08T12:16:55.579Z,33.53
2018-06-08T12:19:23.974Z,34.70
2018-06-08T12:21:52.359Z,33.38
2018-06-08T12:24:20.747Z,34.48
2018-06-08T12:26:49.113Z,35.20
2018-06-08T12:29:17.503Z,35.33
2018-06-08T12:31:45.899Z,33.75
2018-06-08T12:34:14.005Z,34.50
2018-06-08T12:36:42.440Z,34.30
2018-06-08T12:39:10.841Z,33.00
2018-06-08T12:41:39.230Z,35.10
2018-06-08T12:44:07.623Z,37.95
2018-06-08T12:46:36.023Z,35.20
2018-06-08T12:49:04.629Z,35.45
2018-06-08T12:51:33.027Z,36.35
2018-06-08T12:54:01.134Z,35.98
2018-06-08T12:56:29.529Z,34.70
2018-06-08T12:58:57.915Z,36.03
2018-06-08T13:01:26.319Z,38.80
2018-06-08T13:03:54.704Z,34.58
2018-06-08T13:06:23.098Z,41.37
2018-06-08T13:08:51.195Z,36.45
2018-06-08T13:11:19.605Z,37.63
2018-06-08T13:13:48.067Z,36.03
2018-06-08T13:16:16.480Z,35.92
2018-06-08T13:18:44.861Z,35.80
2018-06-08T13:21:13.330Z,38.10
2018-06-08T13:23:41.697Z,42.40
2018-06-08T13:26:10.125Z,38.35
2018-06-08T13:28:38.228Z,37.40
2018-06-08T13:31:06.669Z,38.20
2018-06-08T13:33:34.767Z,42.17
2018-06-08T13:36:03.159Z,41.13
2018-06-08T13:38:31.557Z,41.20
2018-06-08T13:40:59.947Z,37.55
2018-06-08T13:43:28.361Z,38.23
2018-06-08T13:45:56.464Z,39.80
2018-06-08T13:48:24.891Z,39.08
2018-06-08T13:50:53.453Z,38.30
2018-06-08T13:53:21.872Z,39.48
2018-06-08T13:55:49.961Z,38.55
2018-06-08T13:58:18.350Z,38.87
2018-06-08T14:00:46.750Z,38.15
2018-06-08T14:03:15.130Z,39.00
2018-06-08T14:05:43.517Z,38.90
2018-06-08T14:08:11.906Z,36.35
2018-06-08T14:10:40.301Z,37.65
2018-06-08T14:13:08.690Z,37.17
2018-06-08T14:15:37.090Z,37.17
2018-06-08T14:18:05.530Z,36.30
2018-06-08T14:20:33.933Z,36.40
2018-06-08T14:23:02.102Z,35.85
2018-06-08T14:25:30.508Z,37.10
2018-06-08T14:27:58.931Z,36.40
2018-06-08T14:30:27.319Z,36.47
2018-06-08T14:32:55.773Z,37.13
2018-06-08T14:35:24.136Z,37.55
2018-06-08T14:37:52.542Z,37.55
2018-06-08T14:40:20.944Z,42.03
2018-06-08T14:42:49.358Z,41.85
2018-06-08T14:45:17.747Z,38.67
2018-06-08T14:47:46.175Z,37.65
2018-06-08T14:50:14.574Z,38.80
2018-06-08T14:52:42.982Z,36.77
2018-06-08T14:55:11.401Z,38.08
2018-06-08T14:57:39.804Z,38.25
2018-06-08T15:00:08.217Z,38.83
2018-06-08T15:02:36.608Z,39.25
2018-06-08T15:05:05.010Z,39.70
2018-06-08T15:07:33.391Z,38.50
2018-06-08T15:10:01.791Z,37.90
2018-06-08T15:12:30.266Z,37.78
2018-06-08T15:14:58.669Z,37.55
2018-06-08T15:17:26.766Z,37.98
2018-06-08T15:19:55.175Z,37.83
2018-06-08T15:22:23.577Z,38.45
2018-06-08T15:24:51.990Z,37.20
2018-06-08T15:27:20.077Z,38.00
2018-06-08T15:29:48.476Z,36.80
2018-06-08T15:32:16.872Z,36.28
2018-06-08T15:34:45.260Z,35.98
2018-06-08T15:37:13.668Z,35.70
2018-06-08T15:39:41.771Z,35.28
2018-06-08T15:42:10.164Z,35.30
2018-06-08T15:44:38.562Z,34.10
2018-06-08T15:47:06.977Z,34.45
2018-06-08T15:49:35.080Z,34.92
2018-06-08T15:52:03.540Z,33.93
2018-06-08T15:54:31.631Z,36.03
2018-06-08T15:57:00.013Z,35.58
2018-06-08T15:59:28.419Z,33.33
2018-06-08T16:01:56.835Z,35.65
2018-06-08T16:04:24.929Z,35.23
2018-06-08T16:06:53.323Z,36.40
2018-06-08T16:09:21.719Z,35.33
2018-06-08T16:11:50.134Z,36.55
2018-06-08T16:14:18.538Z,36.88
2018-06-08T16:16:46.954Z,36.70
2018-06-08T16:19:15.370Z,35.38
2018-06-08T16:21:43.766Z,36.25
2018-06-08T16:24:11.877Z,36.10
2018-06-08T16:26:40.271Z,35.00
2018-06-08T16:29:08.677Z,35.90
2018-06-08T16:31:37.090Z,35.55
2018-06-08T16:34:05.494Z,36.58
2018-06-08T16:36:33.911Z,36.10
2018-06-08T16:39:02.300Z,35.83
2018-06-08T16:41:30.707Z,36.57
2018-06-08T16:43:59.105Z,35.93
2018-06-08T16:46:27.507Z,35.45
2018-06-08T16:48:55.971Z,33.80
2018-06-08T16:51:24.367Z,34.30
2018-06-08T16:53:52.841Z,32.10
2018-06-08T16:56:21.290Z,32.75
2018-06-08T16:58:49.715Z,31.50
2018-06-08T17:01:18.109Z,33.20
2018-06-08T17:03:46.498Z,33.53
2018-06-08T17:06:14.929Z,33.35
2018-06-08T17:08:43.309Z,32.80
2018-06-08T17:11:11.743Z,32.30
2018-06-08T17:13:39.833Z,31.50
2018-06-08T17:16:08.454Z,32.17
2018-06-08T17:18:36.904Z,30.68
2018-06-08T17:21:05.302Z,31.82
2018-06-08T17:23:33.862Z,30.85
2018-06-08T17:26:02.271Z,29.67
2018-06-08T17:28:30.677Z,30.32
2018-06-08T17:30:59.062Z,49.83
2018-06-08T17:33:27.449Z,36.10
2018-06-08T17:35:55.866Z,34.50
2018-06-08T17:38:24.259Z,32.80
2018-06-08T17:40:52.678Z,33.02
2018-06-08T17:43:21.075Z,41.68
2018-06-08T17:45:49.166Z,33.05
2018-06-08T17:48:17.570Z,32.50
2018-06-08T17:50:46.021Z,32.15
2018-06-08T17:53:14.437Z,32.40
2018-06-08T17:55:42.826Z,31.42
2018-06-08T17:58:11.298Z,31.35
2018-06-08T18:00:39.678Z,31.27
2018-06-08T18:03:08.107Z,32.95
2018-06-08T18:05:36.212Z,29.98
2018-06-08T18:08:04.655Z,28.90
2018-06-08T18:10:32.745Z,28.67
2018-06-08T18:13:01.156Z,30.72
2018-06-08T18:15:29.569Z,26.52
2018-06-08T18:17:58.001Z,27.93
2018-06-08T18:20:26.418Z,27.25
2018-06-08T18:22:54.850Z,28.00
2018-06-08T18:25:23.249Z,27.67
2018-06-08T18:27:51.658Z,31.10
2018-06-08T18:30:20.059Z,27.15
2018-06-08T18:32:48.479Z,26.77
2018-06-08T18:35:16.899Z,27.95
2018-06-08T18:37:45.322Z,27.60
2018-06-08T18:40:13.738Z,26.50
2018-06-08T18:42:42.163Z,28.53
2018-06-08T18:45:10.259Z,28.53
2018-06-08T18:47:38.676Z,34.55
2018-06-08T18:50:06.774Z,35.48
2018-06-08T18:52:34.974Z,39.55
2018-06-08T18:55:03.409Z,34.73
2018-06-08T18:57:31.831Z,35.75
2018-06-08T19:00:00.238Z,34.07
2018-06-08T19:02:28.649Z,35.60
2018-06-08T19:04:57.053Z,35.30
2018-06-08T19:07:25.203Z,35.00
2018-06-08T19:09:53.577Z,40.43
2018-06-08T19:12:21.974Z,40.15
2018-06-08T19:14:50.383Z,39.78
2018-06-08T19:17:18.782Z,39.30
2018-06-08T19:19:47.229Z,35.63
2018-06-08T19:22:15.351Z,36.73
2018-06-08T19:24:43.755Z,38.92
2018-06-08T19:27:12.180Z,35.33
2018-06-08T19:29:40.579Z,35.48
2018-06-08T19:32:08.962Z,33.90
2018-06-08T19:34:37.361Z,35.68
2018-06-08T19:37:05.770Z,35.75
2018-06-08T19:39:34.163Z,35.05
2018-06-08T19:42:02.265Z,35.23
2018-06-08T19:44:30.682Z,34.98
2018-06-08T19:46:59.045Z,35.38
2018-06-08T19:49:27.442Z,36.15
2018-06-08T19:51:55.810Z,35.52
2018-06-08T19:54:24.235Z,35.40
2018-06-08T19:56:52.620Z,34.40
2018-06-08T19:59:21.040Z,34.20
2018-06-08T20:01:49.420Z,34.35
2018-06-08T20:04:17.810Z,34.25
2018-06-08T20:06:46.223Z,34.45
2018-06-08T20:09:14.635Z,33.48
2018-06-08T20:11:43.024Z,33.78
2018-06-08T20:14:11.412Z,34.27
2018-06-08T20:16:39.806Z,34.35
2018-06-08T20:19:08.242Z,33.60
2018-06-08T20:21:36.638Z,35.58
2018-06-08T20:24:05.039Z,35.30
2018-06-08T20:26:33.450Z,35.00
2018-06-08T20:29:01.552Z,33.35
2018-06-08T20:31:29.935Z,33.45
2018-06-08T20:33:58.328Z,34.20
2018-06-08T20:36:26.734Z,33.75
2018-06-08T20:38:55.139Z,34.38
2018-06-08T20:41:23.531Z,33.33
2018-06-08T20:43:51.896Z,32.83
2018-06-08T20:46:20.014Z,32.70
2018-06-08T20:48:48.395Z,34.13
2018-06-08T20:51:16.803Z,33.33
2018-06-08T20:53:45.182Z,33.73
2018-06-08T20:56:13.584Z,33.80
2018-06-08T20:58:41.987Z,34.55
2018-06-08T21:01:10.368Z,34.80
2018-06-08T21:03:38.763Z,35.75
2018-06-08T21:06:07.162Z,34.85
2018-06-08T21:08:35.555Z,33.60
2018-06-08T21:11:03.949Z,34.55
2018-06-08T21:13:32.347Z,35.80
2018-06-08T21:16:00.739Z,35.75
2018-06-08T21:18:29.123Z,35.30
2018-06-08T21:20:57.538Z,36.77
2018-06-08T21:23:25.967Z,36.48
2018-06-08T21:25:54.386Z,35.65
2018-06-08T21:28:22.845Z,36.48
2018-06-08T21:30:51.239Z,36.10
2018-06-08T21:33:19.666Z,36.73
2018-06-08T21:35:48.053Z,38.28
2018-06-08T21:38:16.465Z,38.35
2018-06-08T21:40:44.850Z,39.63
2018-06-08T21:43:13.261Z,40.03
2018-06-08T21:45:41.674Z,38.08
2018-06-08T21:48:10.069Z,39.60
2018-06-08T21:50:38.488Z,39.75
2018-06-08T21:53:06.950Z,41.28
2018-06-08T21:55:35.323Z,39.48
2018-06-08T21:58:03.686Z,38.65
2018-06-08T22:00:32.130Z,38.80
2018-06-08T22:03:00.213Z,37.98
2018-06-08T22:05:28.696Z,39.03
2018-06-08T22:07:57.094Z,39.90
2018-06-08T22:10:25.509Z,40.48
2018-06-08T22:12:53.922Z,39.20
2018-06-08T22:15:22.058Z,40.17
2018-06-08T22:17:50.453Z,40.50
2018-06-08T22:20:18.855Z,40.83
2018-06-08T22:22:47.307Z,39.83
2018-06-08T22:25:15.729Z,40.98
2018-06-08T22:27:44.162Z,41.23
2018-06-08T22:30:12.593Z,42.90
2018-06-08T22:32:40.995Z,41.58
2018-06-08T22:35:09.449Z,42.60
2018-06-08T22:37:37.854Z,43.35
2018-06-08T22:40:06.329Z,44.42
2018-06-08T22:42:34.738Z,43.80
2018-06-08T22:45:03.123Z,43.33
2018-06-08T22:47:31.534Z,44.30
2018-06-08T22:49:59.621Z,44.55
2018-06-08T22:52:28.032Z,42.53
2018-06-08T22:54:56.422Z,45.25
2018-06-08T22:57:24.821Z,46.13
2018-06-08T22:59:52.910Z,46.35
2018-06-08T23:02:21.308Z,46.73
2018-06-08T23:04:49.737Z,45.10
2018-06-08T23:07:18.142Z,45.25
2018-06-08T23:09:46.550Z,46.70
2018-06-08T23:12:14.946Z,45.83
2018-06-08T23:14:43.345Z,44.53
2018-06-08T23:17:11.731Z,43.90
2018-06-08T23:19:40.129Z,42.83
2018-06-08T23:22:08.507Z,40.50
2018-06-08T23:24:36.902Z,41.68
2018-06-08T23:27:05.431Z,42.00
2018-06-08T23:29:33.844Z,37.30
2018-06-08T23:32:02.244Z,38.78
2018-06-08T23:34:30.648Z,38.13
2018-06-08T23:36:59.115Z,36.97
2018-06-08T23:39:27.543Z,37.47
2018-06-08T23:41:55.931Z,37.10
2018-06-08T23:44:24.311Z,35.40
2018-06-08T23:46:52.709Z,35.40
2018-06-08T23:49:21.101Z,34.50
2018-06-08T23:51:49.186Z,34.70
2018-06-08T23:54:17.584Z,33.90
2018-06-08T23:56:45.974Z,35.70
2018-06-08T23:59:14.434Z,35.13
